Main page
METAR-TAF:

METAR-TAF

Airports :

Cranwell, England

RAF Cranwell

latitude: 53-02N, longitude: 000-30W, elevation: 67 m

Current weather observation

The report was made 1 hour and 8 minutes ago, at 12:50 UTC
Wind 16 kt from the West/Southwest
Temperature 20°C
Humidity 64%
Pressure 1011 hPa
Visibility 10 km or more
Scattered clouds at a height of 2600 ft
Broken clouds at a height of 3300 ft

METAR: EGYD 241250Z 25016KT 9999 SCT026 BKN033 20/13 Q1011 BLU NOSIG

Time: 14:58 (13:58 UTC)

Forecast

The report was made 3 hours and 27 minutes ago, at 10:31 UTC
Forecast valid from 24 at 12 UTC to 24 at 18 UTC
Wind 15 kt from the West/Southwest
Visibility 10 km or more
Broken clouds at a height of 2500 ft
Probability 30% :
Temporary
from 24 at 12 UTC to 24 at 13 UTC
Scattered clouds at a height of 2400 ft

TAF: EGYD 241031Z 2412/2418 25015KT 9999 BKN025 PROB30 TEMPO 2412/2413 SCT024

Weather observations and forecasts of more than 4000 airports (METAR and TAF reports).

The available stations are represented by yellow and red dots on the map.

Hover mouse over dot to see the name of the station.

Then click to see weather observations and forecasts.

To change the map : click on the green buttons with a black cross to zoom in, on the green button with a dash to zoom out, or on the green arrows for adjacent maps.


METAR-TAF: